Time;durP1;ratioP1;P1;durP2;ratioP2;P2;SDS_P1;SDS_P2;PMS_P1;PMS_P2;Temp;Humidity;BMP_temperature;BMP_pressure;BME280_temperature;BME280_humidity;BME280_pressure;Samples;Min_cycle;Max_cycle;Signal;HPM_P1;HPM_P2
2022/05/14 00:00:18;;;;;;;17.90;4.35;;;13.60;99.90;;;;;;5093498;28;20062;-58
2022/05/14 00:02:44;;;;;;;12.25;3.90;;;13.70;99.90;;;;;;5076539;28;20058;-59
2022/05/14 00:05:10;;;;;;;19.98;4.97;;;13.60;99.90;;;;;;5111673;28;20047;-59
2022/05/14 00:07:37;;;;;;;19.90;5.40;;;13.60;99.90;;;;;;5111948;28;20526;-58
2022/05/14 00:10:07;;;;;;;16.50;4.90;;;13.60;99.90;;;;;;5093514;28;20044;-58
2022/05/14 00:15:17;;;;;;;18.75;4.72;;;13.60;99.90;;;;;;5111629;28;20102;-59
2022/05/14 00:17:44;;;;;;;15.45;4.53;;;13.50;99.90;;;;;;5112060;28;20040;-58
2022/05/14 00:20:10;;;;;;;13.65;4.35;;;13.50;99.90;;;;;;5111539;28;20109;-58
2022/05/14 00:22:36;;;;;;;13.95;4.72;;;13.50;99.90;;;;;;5111720;28;20134;-59
2022/05/14 00:25:02;;;;;;;22.98;5.47;;;13.50;99.90;;;;;;5111507;28;20065;-59
2022/05/14 00:27:28;;;;;;;16.73;4.85;;;13.40;99.90;;;;;;5093632;28;20106;-58
2022/05/14 00:29:55;;;;;;;18.05;5.07;;;13.40;99.90;;;;;;5093792;28;20336;-59
2022/05/14 00:32:21;;;;;;;14.30;4.53;;;13.40;99.90;;;;;;5093196;28;20048;-59
2022/05/14 00:34:47;;;;;;;22.35;5.50;;;13.40;99.90;;;;;;5093731;28;20177;-58
2022/05/14 00:37:13;;;;;;;20.50;5.28;;;13.30;99.90;;;;;;5093406;28;20154;-60
2022/05/14 00:39:38;;;;;;;19.55;5.22;;;13.30;99.90;;;;;;5111326;28;20089;-59
2022/05/14 00:42:04;;;;;;;17.27;5.57;;;13.20;99.90;;;;;;5111240;28;20050;-59
2022/05/14 00:44:30;;;;;;;17.10;5.55;;;13.20;99.90;;;;;;5093171;28;20500;-59
2022/05/14 00:47:00;;;;;;;17.25;5.10;;;13.20;99.90;;;;;;5093685;28;20117;-60
2022/05/14 00:49:29;;;;;;;17.13;5.20;;;13.20;99.90;;;;;;5111454;28;20052;-59
2022/05/14 00:51:55;;;;;;;15.93;4.53;;;13.20;99.90;;;;;;5111831;28;20094;-59
2022/05/14 00:54:27;;;;;;;20.15;5.57;;;13.20;99.90;;;;;;5093087;28;20364;-58
2022/05/14 00:56:56;;;;;;;21.08;5.30;;;13.20;99.90;;;;;;5111875;28;20058;-59
2022/05/14 00:59:26;;;;;;;15.90;4.50;;;13.20;99.90;;;;;;5093192;28;20043;-59
2022/05/14 01:01:54;;;;;;;18.27;5.55;;;13.20;99.90;;;;;;5112073;28;20497;-59
2022/05/14 01:04:21;;;;;;;19.73;5.00;;;13.20;99.90;;;;;;5093012;28;20484;-59
2022/05/14 01:06:55;;;;;;;17.27;4.95;;;13.20;99.90;;;;;;5111406;28;20092;-59
2022/05/14 01:09:21;;;;;;;24.15;6.95;;;13.10;99.90;;;;;;5076028;28;20549;-59
2022/05/14 01:11:50;;;;;;;18.33;5.60;;;13.10;99.90;;;;;;5111516;28;20404;-59
2022/05/14 01:14:15;;;;;;;19.13;5.20;;;13.10;99.90;;;;;;5092851;28;20492;-59
2022/05/14 01:16:41;;;;;;;21.80;5.82;;;13.10;99.90;;;;;;5097237;28;20055;-59
2022/05/14 01:19:07;;;;;;;19.15;6.18;;;13.10;99.90;;;;;;5114997;28;20043;-59
2022/05/14 01:22:11;;;;;;;18.17;5.90;;;13.10;99.90;;;;;;5097371;28;20461;-59
2022/05/14 01:27:36;;;;;;;17.52;6.07;;;13.00;99.90;;;;;;5115321;28;20055;-59
2022/05/14 01:30:02;;;;;;;25.35;6.10;;;13.00;99.90;;;;;;5080365;28;20099;-59
2022/05/14 01:32:28;;;;;;;20.98;5.97;;;13.00;99.90;;;;;;5080321;28;20096;-59
2022/05/14 01:34:54;;;;;;;22.38;6.15;;;13.00;99.90;;;;;;5115480;28;20468;-60
2022/05/14 01:37:20;;;;;;;23.05;6.00;;;13.00;99.90;;;;;;5114659;28;20074;-59
2022/05/14 01:39:46;;;;;;;24.23;6.50;;;13.00;99.90;;;;;;5096848;28;20051;-59
2022/05/14 01:42:12;;;;;;;27.50;7.22;;;13.00;99.90;;;;;;5079593;28;20603;-59
2022/05/14 01:44:38;;;;;;;21.48;6.25;;;13.00;99.90;;;;;;5096883;28;20097;-59
2022/05/14 01:47:03;;;;;;;20.65;6.45;;;13.00;99.90;;;;;;5114338;28;20075;-59
2022/05/14 01:49:29;;;;;;;19.95;5.53;;;13.00;99.90;;;;;;5114269;28;20051;-59
2022/05/14 01:51:56;;;;;;;23.45;5.90;;;13.00;99.90;;;;;;5114539;28;20100;-59
2022/05/14 01:54:21;;;;;;;24.20;6.43;;;13.00;99.90;;;;;;5114288;28;20048;-59
2022/05/14 01:56:47;;;;;;;25.92;6.90;;;12.90;99.90;;;;;;5114636;28;20143;-59
2022/05/14 01:59:14;;;;;;;20.77;6.78;;;12.90;99.90;;;;;;5114148;28;20081;-60
2022/05/14 02:01:40;;;;;;;24.30;6.15;;;12.90;99.90;;;;;;5114591;28;20054;-59
2022/05/14 02:04:12;;;;;;;23.42;6.45;;;12.90;99.90;;;;;;5079704;28;20126;-59
2022/05/14 02:06:39;;;;;;;21.88;7.07;;;12.90;99.90;;;;;;5113995;28;20039;-59
2022/05/14 02:09:08;;;;;;;25.45;7.15;;;12.80;99.90;;;;;;5096197;28;20077;-59
2022/05/14 02:11:34;;;;;;;20.48;6.45;;;12.80;99.90;;;;;;5113566;28;20044;-59
2022/05/14 02:14:00;;;;;;;23.15;7.25;;;12.80;99.90;;;;;;5114367;28;20135;-59
2022/05/14 02:16:26;;;;;;;27.08;7.10;;;12.70;99.90;;;;;;5095826;28;20128;-59
2022/05/14 02:18:52;;;;;;;28.25;7.95;;;12.70;99.90;;;;;;5114079;28;20040;-59
2022/05/14 02:21:20;;;;;;;26.73;6.80;;;12.80;99.90;;;;;;5095561;28;20472;-59
2022/05/14 02:23:46;;;;;;;31.52;8.05;;;12.60;99.90;;;;;;5114141;28;20341;-58
2022/05/14 02:26:12;;;;;;;33.38;7.20;;;12.60;99.90;;;;;;5113732;28;20502;-58
2022/05/14 02:28:39;;;;;;;29.25;7.57;;;12.60;99.90;;;;;;5113461;28;20031;-59
2022/05/14 02:31:05;;;;;;;21.88;7.20;;;12.50;99.90;;;;;;5079379;28;20058;-58
2022/05/14 02:33:30;;;;;;;23.60;7.07;;;12.50;99.90;;;;;;5113606;28;20477;-58
2022/05/14 02:35:58;;;;;;;29.63;7.75;;;12.50;99.90;;;;;;5079149;28;20039;-59
2022/05/14 02:38:25;;;;;;;25.33;7.45;;;12.40;99.90;;;;;;5095351;28;20054;-59
2022/05/14 02:40:50;;;;;;;27.42;7.53;;;12.40;99.90;;;;;;5078805;28;20048;-59
2022/05/14 02:43:16;;;;;;;39.53;8.75;;;12.40;99.90;;;;;;5113939;28;20050;-60
2022/05/14 02:45:42;;;;;;;25.70;8.95;;;12.40;99.90;;;;;;5095603;28;20289;-58
2022/05/14 02:48:10;;;;;;;24.63;7.65;;;12.40;99.90;;;;;;5078472;28;20058;-58
2022/05/14 02:50:36;;;;;;;25.67;7.68;;;12.30;99.90;;;;;;5112991;28;20054;-59
2022/05/14 02:53:02;;;;;;;37.47;8.35;;;12.30;99.90;;;;;;5113531;28;20055;-59
2022/05/14 02:55:29;;;;;;;30.48;8.48;;;12.30;99.90;;;;;;5094899;28;20048;-60
2022/05/14 02:57:55;;;;;;;25.58;7.65;;;12.30;99.90;;;;;;5113377;28;20078;-59
2022/05/14 03:00:21;;;;;;;26.00;8.43;;;12.30;99.90;;;;;;5112901;28;20444;-60
2022/05/14 03:02:47;;;;;;;30.23;8.52;;;12.20;99.90;;;;;;5113222;28;20044;-59
2022/05/14 03:05:15;;;;;;;28.08;7.40;;;12.20;99.90;;;;;;5095179;28;20503;-59
2022/05/14 03:07:41;;;;;;;35.45;8.73;;;12.20;99.90;;;;;;5112850;28;20131;-59
2022/05/14 03:10:08;;;;;;;30.85;8.45;;;12.20;99.90;;;;;;5094789;28;20039;-60
2022/05/14 03:12:34;;;;;;;27.48;7.50;;;12.10;99.90;;;;;;5112806;28;20051;-59
2022/05/14 03:15:01;;;;;;;25.02;7.40;;;12.10;99.90;;;;;;5113138;28;20118;-60
2022/05/14 03:17:27;;;;;;;24.17;7.22;;;12.10;99.90;;;;;;5112632;28;20059;-60
2022/05/14 03:19:53;;;;;;;33.83;9.20;;;12.10;99.90;;;;;;5112800;28;20043;-59
2022/05/14 03:22:19;;;;;;;26.45;7.88;;;12.10;99.90;;;;;;5094751;28;20044;-59
2022/05/14 03:24:45;;;;;;;27.13;8.30;;;12.10;99.90;;;;;;5094327;28;20060;-60
2022/05/14 03:27:12;;;;;;;32.50;8.48;;;12.10;99.90;;;;;;5094631;28;20047;-63
2022/05/14 03:29:39;;;;;;;31.83;9.07;;;12.00;99.90;;;;;;5094201;28;20495;-59
2022/05/14 03:32:06;;;;;;;32.95;8.73;;;12.00;99.90;;;;;;5112378;28;20097;-59
2022/05/14 03:34:32;;;;;;;26.55;7.93;;;12.00;99.90;;;;;;5112039;28;20052;-60
2022/05/14 03:37:00;;;;;;;31.73;8.32;;;12.00;99.90;;;;;;5112242;28;20125;-60
2022/05/14 03:39:26;;;;;;;34.95;8.63;;;12.00;99.90;;;;;;5093686;28;20043;-60
2022/05/14 03:41:51;;;;;;;31.02;8.85;;;11.90;99.90;;;;;;5112657;28;20066;-60
2022/05/14 03:44:17;;;;;;;31.60;9.00;;;11.90;99.90;;;;;;5112750;28;20065;-59
2022/05/14 03:46:43;;;;;;;28.83;8.85;;;11.90;99.90;;;;;;5094317;28;20044;-59
2022/05/14 03:49:09;;;;;;;34.95;8.45;;;11.90;99.90;;;;;;5094197;28;20136;-60
2022/05/14 03:51:35;;;;;;;30.55;8.73;;;11.90;99.90;;;;;;5094021;28;20055;-59
2022/05/14 03:54:00;;;;;;;29.88;8.52;;;11.90;99.90;;;;;;5094336;28;20484;-59
2022/05/14 03:56:26;;;;;;;25.70;8.35;;;11.90;99.90;;;;;;5112307;28;20096;-60
2022/05/14 03:58:52;;;;;;;32.00;9.35;;;11.90;99.90;;;;;;5112316;28;20052;-59
2022/05/14 04:01:19;;;;;;;32.15;8.15;;;11.90;99.90;;;;;;5077326;28;20043;-60
2022/05/14 04:03:45;;;;;;;28.30;7.95;;;11.90;99.90;;;;;;5111969;28;20051;-59
2022/05/14 04:06:11;;;;;;;33.17;8.00;;;11.90;99.90;;;;;;5112253;28;20047;-59
2022/05/14 04:08:38;;;;;;;28.63;7.43;;;11.80;99.90;;;;;;5111535;28;20048;-60
2022/05/14 04:11:05;;;;;;;28.85;8.98;;;11.80;99.90;;;;;;5060425;28;20203;-60
2022/05/14 04:13:31;;;;;;;33.38;8.60;;;11.90;99.90;;;;;;5111637;28;20043;-60
2022/05/14 04:15:58;;;;;;;19.73;7.55;;;11.90;99.90;;;;;;5077300;28;20039;-62
2022/05/14 04:18:26;;;;;;;32.25;9.63;;;11.90;99.90;;;;;;5112006;28;20128;-59
2022/05/14 04:20:56;;;;;;;27.75;8.32;;;11.90;99.90;;;;;;5111699;28;20079;-59
2022/05/14 04:23:24;;;;;;;30.25;7.60;;;11.90;99.90;;;;;;5093905;28;20047;-59
2022/05/14 04:25:51;;;;;;;29.45;7.85;;;12.00;99.90;;;;;;5076494;28;20055;-59
2022/05/14 04:28:18;;;;;;;24.30;8.18;;;12.00;99.90;;;;;;5111734;28;20101;-59
2022/05/14 04:30:45;;;;;;;27.92;8.13;;;12.00;99.90;;;;;;5111178;28;20039;-59
2022/05/14 04:33:12;;;;;;;28.48;8.20;;;12.10;99.90;;;;;;5111476;28;20051;-59
2022/05/14 04:35:37;;;;;;;30.27;8.18;;;12.20;99.90;;;;;;5093042;28;20047;-59
2022/05/14 04:38:03;;;;;;;23.02;6.95;;;12.40;99.90;;;;;;5093292;28;20147;-59
2022/05/14 04:40:29;;;;;;;28.42;7.45;;;12.60;99.90;;;;;;5093501;28;20040;-59
2022/05/14 04:42:55;;;;;;;22.55;6.80;;;12.90;99.90;;;;;;5092949;28;20445;-59
2022/05/14 04:45:21;;;;;;;25.58;7.53;;;13.20;99.90;;;;;;5092855;28;20477;-59
2022/05/14 04:47:47;;;;;;;26.63;6.72;;;13.60;99.90;;;;;;5110514;28;20048;-59
2022/05/14 04:50:14;;;;;;;28.40;7.10;;;13.90;99.90;;;;;;5077996;28;20419;-59
2022/05/14 04:52:39;;;;;;;23.02;7.03;;;14.10;99.90;;;;;;5115464;28;20073;-59
2022/05/14 04:55:06;;;;;;;30.45;7.07;;;14.40;99.90;;;;;;5097546;28;20515;-59
2022/05/14 04:57:32;;;;;;;21.77;6.50;;;14.80;99.90;;;;;;5097414;28;20515;-59
2022/05/14 04:59:57;;;;;;;24.33;6.63;;;15.00;99.90;;;;;;5096949;28;20040;-59
2022/05/14 05:05:08;;;;;;;;;;;15.70;99.90;;;;;;5115859;28;20070;-59
2022/05/14 05:07:34;;;;;;;20.92;6.13;;;16.20;99.90;;;;;;5097152;28;19920;-59
2022/05/14 05:10:00;;;;;;;25.42;6.97;;;16.60;99.90;;;;;;5115568;28;20436;-59
2022/05/14 05:12:25;;;;;;;26.17;6.20;;;16.90;99.90;;;;;;5097103;28;20059;-60
2022/05/14 05:14:51;;;;;;;25.23;7.05;;;17.40;99.90;;;;;;5096675;28;20059;-60
2022/05/14 05:17:17;;;;;;;25.05;6.05;;;17.60;99.90;;;;;;5097348;28;20039;-60
2022/05/14 05:19:43;;;;;;;24.83;6.28;;;18.00;99.90;;;;;;5114984;28;20039;-60
2022/05/14 05:22:08;;;;;;;23.55;6.63;;;18.40;99.90;;;;;;5115363;28;20124;-59
2022/05/14 05:24:34;;;;;;;22.42;6.00;;;18.60;99.90;;;;;;5115342;28;20127;-60
2022/05/14 05:27:00;;;;;;;24.10;5.70;;;18.70;99.90;;;;;;5114883;28;20108;-59
2022/05/14 05:29:25;;;;;;;20.95;6.00;;;19.20;99.90;;;;;;5097148;28;20051;-59
2022/05/14 05:31:51;;;;;;;20.60;6.15;;;19.20;99.90;;;;;;5114407;28;20048;-60
2022/05/14 05:34:17;;;;;;;26.77;5.90;;;18.90;99.90;;;;;;5096874;28;20051;-59
2022/05/14 05:36:43;;;;;;;19.73;5.78;;;18.60;99.90;;;;;;5114429;28;20058;-60
2022/05/14 05:39:10;;;;;;;18.95;6.35;;;18.30;99.90;;;;;;5079967;28;20069;-59
2022/05/14 05:41:36;;;;;;;19.77;5.43;;;18.00;99.90;;;;;;5096621;28;20043;-60
2022/05/14 05:44:02;;;;;;;20.17;5.78;;;17.60;99.90;;;;;;5096289;28;20111;-59
2022/05/14 05:46:28;;;;;;;21.13;5.63;;;17.40;99.90;;;;;;5096643;28;20051;-59
2022/05/14 05:48:53;;;;;;;20.13;5.68;;;17.60;99.90;;;;;;5114189;28;20055;-59
2022/05/14 05:51:19;;;;;;;19.38;5.15;;;18.20;99.90;;;;;;5079678;28;20104;-60
2022/05/14 05:56:49;;;;;;;;;;;19.80;99.90;;;;;;5096534;28;20058;-60
2022/05/14 05:59:15;;;;;;;;;;;20.40;99.90;;;;;;5096777;28;19920;-60
2022/05/14 06:01:42;;;;;;;19.17;5.97;;;20.60;99.90;;;;;;5114103;28;19920;-60
2022/05/14 06:04:08;;;;;;;16.25;5.05;;;21.10;99.90;;;;;;5114237;28;20086;-60
2022/05/14 06:06:34;;;;;;;19.17;5.70;;;21.50;99.90;;;;;;5096269;28;20079;-60
2022/05/14 06:09:00;;;;;;;16.35;5.35;;;22.10;99.90;;;;;;5096036;28;20052;-59
2022/05/14 06:11:26;;;;;;;18.48;5.68;;;22.50;99.30;;;;;;5095911;28;20059;-58
2022/05/14 06:13:52;;;;;;;16.65;5.03;;;22.90;98.40;;;;;;5113978;28;20096;-59
2022/05/14 06:16:18;;;;;;;15.63;5.55;;;23.40;98.60;;;;;;5096184;28;20052;-60
2022/05/14 06:18:44;;;;;;;18.75;4.78;;;23.50;96.90;;;;;;5096213;28;20046;-60
2022/05/14 06:21:11;;;;;;;19.77;5.55;;;23.40;96.30;;;;;;5095945;28;20036;-60
2022/05/14 06:23:37;;;;;;;17.42;4.75;;;23.50;96.20;;;;;;5114331;28;20035;-59
2022/05/14 06:26:03;;;;;;;18.00;5.25;;;23.80;95.60;;;;;;5095738;28;20047;-60
2022/05/14 06:28:29;;;;;;;22.73;5.63;;;23.60;95.00;;;;;;5114092;28;20392;-61
2022/05/14 06:30:58;;;;;;;20.30;5.50;;;23.80;94.80;;;;;;5095256;28;20131;-59
2022/05/14 06:33:26;;;;;;;18.60;5.47;;;23.50;94.50;;;;;;5095884;28;20412;-59
2022/05/14 06:35:53;;;;;;;20.38;6.25;;;23.40;95.00;;;;;;5113601;28;20047;-59
2022/05/14 06:38:19;;;;;;;12.35;4.32;;;22.80;94.80;;;;;;5076720;28;20043;-60
2022/05/14 06:40:46;;;;;;;17.38;4.60;;;22.50;95.40;;;;;;5094910;28;20047;-60
2022/05/14 06:43:15;;;;;;;18.45;4.63;;;22.40;95.70;;;;;;5095053;28;20079;-59
2022/05/14 06:45:42;;;;;;;13.52;4.45;;;22.60;94.30;;;;;;5096075;28;20201;-60
2022/05/14 06:48:08;;;;;;;17.88;4.88;;;22.80;94.60;;;;;;5093111;28;20156;-57
2022/05/14 06:50:39;;;;;;;13.57;4.93;;;23.10;94.60;;;;;;5076545;28;20142;-59
2022/05/14 06:53:07;;;;;;;11.95;3.75;;;23.50;94.20;;;;;;5112841;28;20089;-59
2022/05/14 06:55:38;;;;;;;16.63;4.20;;;23.60;92.60;;;;;;5095016;28;20050;-59
2022/05/14 06:58:05;;;;;;;14.35;4.03;;;24.20;92.10;;;;;;5113410;28;20044;-59
2022/05/14 07:00:31;;;;;;;13.48;4.32;;;24.60;91.90;;;;;;5095427;28;20043;-58
2022/05/14 07:06:37;;;;;;;15.35;4.35;;;24.80;91.50;;;;;;5112750;28;20047;-59
2022/05/14 07:08:27;;;;;;;17.85;4.35;;;24.90;90.60;;;;;;5113608;28;20044;-59
2022/05/14 07:10:53;;;;;;;15.98;5.20;;;25.50;90.40;;;;;;5113154;28;20093;-61
2022/05/14 07:13:19;;;;;;;13.88;4.10;;;25.70;90.20;;;;;;5112326;28;20127;-59
2022/05/14 07:15:44;;;;;;;15.85;4.72;;;25.50;88.60;;;;;;5113429;28;20082;-59
2022/05/14 07:18:10;;;;;;;13.90;4.57;;;26.00;87.90;;;;;;5078060;28;20468;-59
2022/05/14 07:20:36;;;;;;;13.30;4.25;;;25.80;87.60;;;;;;5095249;28;20185;-60
2022/05/14 07:23:02;;;;;;;13.95;4.47;;;26.20;86.40;;;;;;5094587;28;20047;-60
2022/05/14 07:25:28;;;;;;;11.20;4.15;;;26.60;86.10;;;;;;5094659;28;20051;-58
2022/05/14 07:27:54;;;;;;;14.40;4.70;;;27.00;84.30;;;;;;5113131;28;20050;-60
2022/05/14 07:30:20;;;;;;;14.68;4.15;;;27.40;83.80;;;;;;5112548;28;20039;-59
2022/05/14 07:32:46;;;;;;;14.02;4.47;;;27.90;81.70;;;;;;5112839;28;20058;-60
2022/05/14 07:35:12;;;;;;;11.30;4.40;;;28.10;81.10;;;;;;5077441;28;20051;-59
2022/05/14 07:37:49;;;;;;;9.93;3.53;;;28.50;79.90;;;;;;5094431;28;20046;-58
2022/05/14 07:40:19;;;;;;;11.95;4.15;;;28.50;78.50;;;;;;5112288;28;20554;-59
2022/05/14 07:42:53;;;;;;;10.82;3.83;;;28.30;78.50;;;;;;5077572;28;20039;-59
2022/05/14 07:45:25;;;;;;;11.07;4.25;;;28.60;77.60;;;;;;5112487;28;20070;-56
2022/05/14 07:47:52;;;;;;;12.07;3.90;;;28.80;76.90;;;;;;5112761;28;20047;-59
2022/05/14 07:50:18;;;;;;;11.25;4.00;;;28.80;75.30;;;;;;5093827;28;20093;-59
2022/05/14 07:52:44;;;;;;;12.23;3.88;;;28.90;76.00;;;;;;5077599;28;20043;-59
2022/05/14 07:55:11;;;;;;;11.73;4.38;;;28.50;75.80;;;;;;5094527;28;20434;-59
2022/05/14 07:57:37;;;;;;;12.30;3.75;;;28.70;74.80;;;;;;5112873;28;20048;-59
2022/05/14 08:00:05;;;;;;;12.48;4.00;;;28.10;74.70;;;;;;5112398;28;20447;-59
2022/05/14 08:02:34;;;;;;;12.05;4.40;;;27.70;76.00;;;;;;5094575;28;20391;-59
2022/05/14 08:05:03;;;;;;;10.63;3.50;;;27.00;77.10;;;;;;5112190;28;20043;-61
2022/05/14 08:07:29;;;;;;;10.98;4.15;;;26.80;76.60;;;;;;5112641;28;20374;-60
2022/05/14 08:09:54;;;;;;;13.23;4.32;;;26.70;76.00;;;;;;5094655;28;20396;-60
2022/05/14 08:12:20;;;;;;;9.40;3.83;;;26.70;76.10;;;;;;5112221;28;20319;-59
2022/05/14 08:14:46;;;;;;;10.77;4.10;;;27.30;76.00;;;;;;5094277;28;20116;-59
2022/05/14 08:17:11;;;;;;;11.90;3.50;;;27.70;75.70;;;;;;5112250;28;20106;-60
2022/05/14 08:19:37;;;;;;;13.57;4.20;;;27.90;74.50;;;;;;5077438;28;20044;-60
2022/05/14 08:24:48;;;;;;;12.10;3.95;;;28.60;74.10;;;;;;5112139;28;20074;-60
2022/05/14 08:27:15;;;;;;;11.55;3.55;;;28.40;74.10;;;;;;5112042;28;20476;-60
2022/05/14 08:29:41;;;;;;;10.38;3.63;;;28.60;73.20;;;;;;5094075;28;20044;-60
2022/05/14 08:32:07;;;;;;;14.95;4.35;;;28.10;73.50;;;;;;5093928;28;20294;-60
2022/05/14 08:34:33;;;;;;;11.10;4.20;;;27.80;73.60;;;;;;5112293;28;20507;-59
2022/05/14 08:36:59;;;;;;;12.40;3.92;;;27.70;74.50;;;;;;5077207;28;20051;-59
2022/05/14 08:39:27;;;;;;;13.25;4.47;;;27.50;73.90;;;;;;5111838;28;20040;-59
2022/05/14 08:41:55;;;;;;;10.80;3.95;;;27.30;73.90;;;;;;5112156;28;20115;-60
2022/05/14 08:44:30;;;;;;;12.88;4.03;;;27.40;73.70;;;;;;5093693;28;20074;-59
2022/05/14 08:47:00;;;;;;;13.57;4.55;;;27.00;74.50;;;;;;5093845;28;20047;-59
2022/05/14 08:49:35;;;;;;;12.43;4.50;;;26.90;75.20;;;;;;5111477;28;20060;-59
2022/05/14 08:52:04;;;;;;;14.35;4.50;;;26.70;75.30;;;;;;5112192;28;20083;-59
2022/05/14 08:54:30;;;;;;;13.73;4.38;;;26.30;75.00;;;;;;5111762;28;20044;-59
2022/05/14 08:57:43;;;;;;;13.20;4.07;;;25.80;74.90;;;;;;5093751;28;20059;-60
2022/05/14 09:00:11;;;;;;;16.92;4.57;;;25.00;75.60;;;;;;5034006;28;20052;-63
2022/05/14 09:02:42;;;;;;;12.95;4.28;;;24.10;77.10;;;;;;5093823;28;20043;-62
2022/05/14 09:05:08;;;;;;;14.40;4.90;;;24.00;78.50;;;;;;5112294;28;20047;-63
2022/05/14 09:07:36;;;;;;;14.38;4.05;;;24.20;77.40;;;;;;5111859;28;20337;-58
2022/05/14 09:10:06;;;;;;;12.75;3.85;;;25.10;77.70;;;;;;5077214;28;20043;-60
2022/05/14 09:12:34;;;;;;;11.20;4.00;;;25.80;76.20;;;;;;5111148;28;20523;-60
2022/05/14 09:15:13;;;;;;;15.60;4.35;;;26.60;74.40;;;;;;5112045;28;20040;-58
2022/05/14 09:17:38;;;;;;;15.18;4.68;;;27.10;73.80;;;;;;5093622;28;20153;-58
2022/05/14 09:20:05;;;;;;;14.90;4.70;;;27.20;73.00;;;;;;5111851;28;20206;-59
2022/05/14 09:22:44;;;;;;;14.82;4.35;;;26.90;72.90;;;;;;5111642;28;20452;-59
2022/05/14 09:25:18;;;;;;;13.20;3.88;;;26.50;74.20;;;;;;5112160;28;20040;-59
2022/05/14 09:27:51;;;;;;;15.07;4.50;;;26.30;74.30;;;;;;5093697;28;20044;-59
2022/05/14 09:30:42;;;;;;;13.88;4.47;;;26.60;74.70;;;;;;5111411;28;20066;-59
2022/05/14 09:33:27;;;;;;;14.50;4.40;;;26.60;73.90;;;;;;5111875;28;20091;-60
2022/05/14 09:35:55;;;;;;;14.55;4.85;;;26.50;73.40;;;;;;5113037;28;20055;-59
2022/05/14 09:38:23;;;;;;;13.77;4.15;;;26.20;74.20;;;;;;5115024;28;20044;-59
2022/05/14 09:40:51;;;;;;;15.70;4.97;;;25.70;74.20;;;;;;5080146;28;20055;-58
2022/05/14 09:43:16;;;;;;;12.50;4.78;;;25.30;75.00;;;;;;5115138;28;20126;-58
2022/05/14 09:46:04;;;;;;;15.40;4.10;;;25.10;76.40;;;;;;5115501;28;20130;-58
2022/05/14 09:48:33;;;;;;;14.90;4.32;;;25.10;77.20;;;;;;5113587;28;20060;-59
2022/05/14 09:51:06;;;;;;;13.55;4.30;;;25.10;75.70;;;;;;5080366;28;20047;-58
2022/05/14 09:53:35;;;;;;;15.57;4.82;;;24.90;75.70;;;;;;5115281;28;20430;-59
2022/05/14 09:56:27;;;;;;;15.13;4.00;;;24.40;77.20;;;;;;5115261;28;20044;-58
2022/05/14 09:59:31;;;;;;;14.20;4.90;;;24.00;78.70;;;;;;5113885;28;20051;-58
2022/05/14 10:02:22;;;;;;;19.40;4.90;;;23.60;79.80;;;;;;5058106;28;20089;-59
2022/05/14 10:05:00;;;;;;;15.27;4.53;;;23.50;80.40;;;;;;5115101;28;20050;-59
2022/05/14 10:07:35;;;;;;;14.95;4.22;;;23.60;79.70;;;;;;5096771;28;20448;-60
2022/05/14 10:10:29;;;;;;;14.38;4.43;;;23.30;80.30;;;;;;5114834;28;20070;-60
2022/05/14 10:13:02;;;;;;;16.00;4.85;;;23.50;79.80;;;;;;5097040;28;20047;-60
2022/05/14 10:15:50;;;;;;;14.73;4.50;;;23.50;79.80;;;;;;5096545;28;20047;-60
2022/05/14 10:18:44;;;;;;;13.75;4.28;;;23.60;79.50;;;;;;5096474;28;20040;-60
2022/05/14 10:21:36;;;;;;;14.77;4.20;;;23.90;78.20;;;;;;5114719;28;20043;-60
2022/05/14 10:27:05;;;;;;;16.38;4.70;;;24.20;77.10;;;;;;5114244;28;20051;-60
2022/05/14 10:30:02;;;;;;;15.18;4.68;;;24.40;77.90;;;;;;5096039;28;20400;-60
2022/05/14 10:32:31;;;;;;;13.77;4.05;;;24.40;77.60;;;;;;5114070;28;20131;-59
2022/05/14 10:35:02;;;;;;;15.35;5.10;;;24.00;76.90;;;;;;5114513;28;20464;-59
2022/05/14 10:37:46;;;;;;;16.88;5.00;;;23.80;77.60;;;;;;5095990;28;20048;-60
2022/05/14 10:40:29;;;;;;;13.70;4.00;;;23.90;77.50;;;;;;5114365;28;20043;-59
2022/05/14 10:42:59;;;;;;;17.58;4.82;;;24.00;77.40;;;;;;5114243;28;20043;-62
2022/05/14 10:45:43;;;;;;;15.82;4.53;;;24.20;77.70;;;;;;5096030;28;20043;-59
2022/05/14 10:48:28;;;;;;;12.02;3.95;;;23.90;77.50;;;;;;5112873;28;20040;-59
2022/05/14 10:50:54;;;;;;;14.18;4.78;;;23.20;77.10;;;;;;5113974;28;20052;-58
2022/05/14 10:53:20;;;;;;;12.60;4.15;;;23.10;77.30;;;;;;5096102;28;20082;-59
2022/05/14 10:55:55;;;;;;;13.52;4.38;;;23.40;78.00;;;;;;5095663;28;20056;-59
2022/05/14 10:58:41;;;;;;;13.82;3.90;;;23.50;78.00;;;;;;5114084;28;20126;-58
2022/05/14 11:01:08;;;;;;;17.77;4.10;;;23.80;79.30;;;;;;5113904;28;20118;-59
2022/05/14 11:03:40;;;;;;;13.88;4.00;;;24.10;77.20;;;;;;5095391;28;20048;-58
2022/05/14 11:06:09;;;;;;;15.43;4.38;;;24.30;76.90;;;;;;5095754;28;20056;-58
2022/05/14 11:08:39;;;;;;;12.50;4.47;;;24.30;76.10;;;;;;5113593;28;20044;-59
2022/05/14 11:11:07;;;;;;;15.10;4.68;;;24.30;76.70;;;;;;5114043;28;20071;-59
2022/05/14 11:13:34;;;;;;;16.25;4.88;;;24.40;77.20;;;;;;5113236;28;20044;-61
2022/05/14 11:16:12;;;;;;;13.52;4.65;;;24.30;77.00;;;;;;5113756;28;20047;-60
2022/05/14 11:18:53;;;;;;;18.27;4.57;;;24.40;76.30;;;;;;5113072;28;20481;-61
2022/05/14 11:21:32;;;;;;;15.35;5.18;;;24.40;77.40;;;;;;5113615;28;20048;-60
2022/05/14 11:24:00;;;;;;;14.93;5.07;;;24.50;75.80;;;;;;5113516;28;20453;-59
2022/05/14 11:26:27;;;;;;;14.88;5.20;;;24.40;75.90;;;;;;5113143;28;20083;-60
2022/05/14 11:29:12;;;;;;;18.52;5.15;;;24.30;76.00;;;;;;5095369;28;20055;-60
2022/05/14 11:31:48;;;;;;;16.40;4.75;;;24.10;76.70;;;;;;5113262;28;20051;-60
2022/05/14 11:34:20;;;;;;;16.58;4.43;;;23.90;77.60;;;;;;5113274;28;20104;-60
2022/05/14 11:36:51;;;;;;;13.00;4.10;;;23.90;78.00;;;;;;5112774;28;20118;-59
2022/05/14 11:39:20;;;;;;;16.85;4.65;;;23.80;77.90;;;;;;5094676;28;20502;-59
2022/05/14 11:41:47;;;;;;;16.75;5.10;;;23.80;77.80;;;;;;5112974;28;20384;-60
2022/05/14 11:44:23;;;;;;;16.58;4.75;;;23.80;78.00;;;;;;5078303;28;20054;-60
2022/05/14 11:46:50;;;;;;;17.40;4.53;;;23.40;77.70;;;;;;5112801;28;20634;-60
2022/05/14 11:49:26;;;;;;;19.75;4.85;;;23.30;78.40;;;;;;5091346;28;20048;-60
2022/05/14 11:52:20;;;;;;;12.73;4.53;;;22.90;79.60;;;;;;5092437;28;20106;-59
2022/05/14 11:54:56;;;;;;;14.70;5.03;;;22.70;78.30;;;;;;5092192;28;20386;-60
2022/05/14 11:57:35;;;;;;;17.73;5.05;;;22.80;78.80;;;;;;5092651;28;20040;-59
2022/05/14 12:00:16;;;;;;;14.95;4.80;;;23.00;79.00;;;;;;5092061;28;20458;-59
2022/05/14 12:03:08;;;;;;;19.42;5.35;;;23.00;79.90;;;;;;5090998;28;20055;-59
2022/05/14 12:05:40;;;;;;;16.02;4.95;;;22.90;79.90;;;;;;5090513;28;20044;-60
2022/05/14 12:08:29;;;;;;;14.85;4.15;;;22.80;80.60;;;;;;5091369;28;20084;-59
2022/05/14 12:11:14;;;;;;;16.92;5.32;;;22.80;80.40;;;;;;5091972;28;20440;-59
2022/05/14 12:14:06;;;;;;;14.77;4.80;;;23.00;80.40;;;;;;5091766;28;20055;-60
2022/05/14 12:16:41;;;;;;;17.40;5.00;;;22.90;79.70;;;;;;5090945;28;20105;-59
2022/05/14 12:19:25;;;;;;;14.95;4.97;;;22.40;79.90;;;;;;5091098;28;20086;-59
2022/05/14 12:21:57;;;;;;;24.13;6.97;;;22.40;79.90;;;;;;5090544;28;20083;-59
2022/05/14 12:24:31;;;;;;;14.70;5.10;;;22.60;80.20;;;;;;5091821;28;20079;-59
2022/05/14 12:26:57;;;;;;;19.57;4.67;;;22.80;79.50;;;;;;5091710;28;20044;-59
2022/05/14 12:29:34;;;;;;;18.85;5.10;;;22.90;80.20;;;;;;5091998;28;20062;-59
2022/05/14 12:34:50;;;;;;;15.52;5.07;;;23.10;78.30;;;;;;5091283;28;20485;-59
2022/05/14 12:37:32;;;;;;;21.42;4.78;;;23.10;78.60;;;;;;5090691;28;20097;-61
2022/05/14 12:39:58;;;;;;;18.70;4.78;;;23.10;80.00;;;;;;5091670;28;20083;-59
2022/05/14 12:42:39;;;;;;;14.88;4.68;;;23.00;80.50;;;;;;5090600;28;20084;-59
2022/05/14 12:45:07;;;;;;;15.85;5.03;;;22.90;80.40;;;;;;5091810;28;20086;-59
2022/05/14 12:47:34;;;;;;;14.55;4.95;;;22.90;80.60;;;;;;5091314;28;20473;-61
2022/05/14 12:50:01;;;;;;;17.13;4.72;;;23.00;81.60;;;;;;5089944;28;20052;-59
2022/05/14 12:52:33;;;;;;;17.90;4.93;;;23.10;81.00;;;;;;5090819;28;20386;-59
2022/05/14 12:55:05;;;;;;;15.40;5.05;;;23.00;81.00;;;;;;5090131;28;20048;-59
2022/05/14 12:57:33;;;;;;;16.42;4.45;;;22.90;80.50;;;;;;5091905;28;20051;-59
2022/05/14 13:00:00;;;;;;;16.50;5.20;;;22.70;81.00;;;;;;5091211;28;20040;-59
2022/05/14 13:02:33;;;;;;;19.15;5.00;;;22.80;81.40;;;;;;5090429;28;20052;-60
2022/05/14 13:05:09;;;;;;;15.43;4.38;;;22.90;80.80;;;;;;5090280;28;20293;-59
2022/05/14 13:07:53;;;;;;;16.98;4.88;;;23.10;81.30;;;;;;5091509;28;20052;-61
2022/05/14 13:10:23;;;;;;;15.07;4.47;;;22.80;81.00;;;;;;5090427;28;20052;-60
2022/05/14 13:13:01;;;;;;;14.43;4.32;;;22.50;80.00;;;;;;5095453;28;20066;-59